Time;durP1;ratioP1;P1;durP2;ratioP2;P2;SDS_P1;SDS_P2;PMS_P1;PMS_P2;Temp;Humidity;BMP_temperature;BMP_pressure;BME280_temperature;BME280_humidity;BME280_pressure;Samples;Min_cycle;Max_cycle;Signal;HPM_P1;HPM_P2
2023/06/27 00:01:04;;;;;;;7.10;2.30;;;14.80;56.30;;;;;;4989978;28;20221;-67
2023/06/27 00:03:34;;;;;;;8.33;2.20;;;14.70;55.70;;;;;;4991881;28;20179;-67
2023/06/27 00:06:03;;;;;;;10.67;2.23;;;14.80;55.90;;;;;;4987660;28;20190;-67
2023/06/27 00:08:34;;;;;;;7.00;2.23;;;14.90;55.40;;;;;;4991961;28;20181;-67
2023/06/27 00:11:01;;;;;;;8.50;1.70;;;15.00;55.70;;;;;;4991865;28;20655;-67
2023/06/27 00:13:29;;;;;;;8.37;2.23;;;15.10;55.30;;;;;;4990454;28;20532;-67
2023/06/27 00:16:00;;;;;;;10.43;2.20;;;15.10;54.30;;;;;;4991983;28;20190;-67
2023/06/27 00:18:34;;;;;;;6.87;2.10;;;15.20;54.90;;;;;;4991194;28;20186;-67
2023/06/27 00:21:01;;;;;;;10.37;2.23;;;15.20;54.50;;;;;;4989230;28;20315;-67
2023/06/27 00:23:33;;;;;;;7.50;2.50;;;15.20;54.50;;;;;;4992362;28;20272;-67
2023/06/27 00:26:04;;;;;;;3.80;1.67;;;15.40;54.80;;;;;;4991884;28;20244;-67
2023/06/27 00:28:31;;;;;;;5.03;1.60;;;15.50;53.20;;;;;;4989278;28;20182;-68
2023/06/27 00:30:58;;;;;;;4.57;1.93;;;15.40;52.80;;;;;;4989251;28;20229;-66
2023/06/27 00:33:26;;;;;;;7.87;1.70;;;15.50;53.40;;;;;;4991900;28;20264;-67
2023/06/27 00:35:53;;;;;;;4.80;1.50;;;15.60;53.50;;;;;;4989068;28;20293;-67
2023/06/27 00:38:20;;;;;;;3.20;1.63;;;15.50;52.20;;;;;;4989672;28;20181;-71
2023/06/27 00:40:48;;;;;;;5.80;1.63;;;15.60;52.70;;;;;;4987703;28;20641;-66
2023/06/27 00:43:15;;;;;;;5.33;1.70;;;15.70;52.40;;;;;;4987221;28;20220;-67
2023/06/27 00:45:43;;;;;;;2.53;1.33;;;15.70;52.20;;;;;;4991528;28;20187;-67
2023/06/27 00:48:13;;;;;;;4.37;1.70;;;15.80;52.30;;;;;;4988962;28;20895;-67
2023/06/27 00:50:40;;;;;;;2.43;1.43;;;16.00;52.10;;;;;;4987495;28;20619;-67
2023/06/27 00:53:08;;;;;;;6.30;2.00;;;16.00;51.40;;;;;;4990065;28;20188;-66
2023/06/27 00:55:37;;;;;;;5.10;1.80;;;16.10;51.40;;;;;;4990959;28;20552;-67
2023/06/27 00:58:09;;;;;;;6.67;2.00;;;16.00;50.90;;;;;;4989021;28;20188;-66
2023/06/27 01:00:37;;;;;;;5.70;1.90;;;15.80;51.30;;;;;;4989110;28;20205;-68
2023/06/27 01:03:04;;;;;;;8.67;1.90;;;15.90;51.30;;;;;;4989044;28;20182;-66
2023/06/27 01:05:32;;;;;;;6.47;1.80;;;16.10;50.90;;;;;;4989042;28;20246;-67
2023/06/27 01:08:13;;;;;;;5.83;1.70;;;16.20;50.60;;;;;;4989727;28;20181;-66
2023/06/27 01:10:42;;;;;;;3.53;1.67;;;16.50;50.10;;;;;;4985987;28;20197;-67
2023/06/27 01:13:16;;;;;;;4.90;1.90;;;16.60;49.30;;;;;;4986976;28;20231;-67
2023/06/27 01:15:44;;;;;;;11.27;1.90;;;16.40;49.80;;;;;;4987511;28;20677;-67
2023/06/27 01:18:12;;;;;;;7.63;1.87;;;16.50;49.90;;;;;;4986519;28;20670;-67
2023/06/27 01:20:43;;;;;;;5.23;1.47;;;16.30;50.40;;;;;;4990711;28;20245;-67
2023/06/27 01:23:17;;;;;;;8.63;1.87;;;16.40;50.20;;;;;;4988125;28;20199;-71
2023/06/27 01:25:45;;;;;;;8.37;1.80;;;16.70;49.60;;;;;;4987074;28;20188;-69
2023/06/27 01:28:14;;;;;;;4.10;1.67;;;16.90;49.20;;;;;;4988366;28;20844;-67
2023/06/27 01:30:44;;;;;;;4.10;1.70;;;17.10;48.50;;;;;;4985804;28;20186;-68
2023/06/27 01:33:54;;;;;;;4.93;1.70;;;17.20;48.60;;;;;;4987204;28;20507;-68
2023/06/27 01:36:32;;;;;;;9.37;1.50;;;17.30;47.50;;;;;;4978635;28;20273;-68
2023/06/27 01:39:06;;;;;;;5.10;1.50;;;17.40;47.30;;;;;;4986965;28;20189;-68
2023/06/27 01:41:38;;;;;;;6.50;1.40;;;17.50;47.30;;;;;;4987494;28;20202;-67
2023/06/27 01:44:06;;;;;;;10.07;1.63;;;17.40;47.00;;;;;;4990135;28;20213;-66
2023/06/27 01:46:34;;;;;;;7.27;1.80;;;17.70;47.00;;;;;;4988870;28;20652;-66
2023/06/27 01:49:03;;;;;;;3.03;1.23;;;17.70;46.30;;;;;;4991430;28;20186;-68
2023/06/27 01:51:32;;;;;;;4.30;1.47;;;17.80;46.80;;;;;;4985739;28;20675;-68
2023/06/27 01:54:00;;;;;;;4.30;1.20;;;18.00;45.70;;;;;;4984538;28;20178;-72
2023/06/27 01:56:27;;;;;;;5.27;1.83;;;18.00;46.00;;;;;;4986620;28;20179;-69
2023/06/27 01:58:55;;;;;;;3.37;1.50;;;18.00;45.30;;;;;;4989713;28;20232;-68
2023/06/27 02:01:22;;;;;;;8.30;1.77;;;18.10;46.10;;;;;;4988531;28;20226;-71
2023/06/27 02:03:49;;;;;;;5.60;1.30;;;18.30;45.30;;;;;;4989803;28;20181;-68
2023/06/27 02:06:17;;;;;;;4.00;1.30;;;18.30;45.50;;;;;;4990448;28;20186;-67
2023/06/27 02:08:45;;;;;;;4.40;1.20;;;18.30;44.80;;;;;;4990393;28;20182;-68
2023/06/27 02:11:12;;;;;;;3.17;1.33;;;18.30;44.90;;;;;;4992436;28;20898;-68
2023/06/27 02:13:40;;;;;;;4.67;1.50;;;18.30;44.90;;;;;;4994095;28;20188;-67
2023/06/27 02:16:07;;;;;;;7.60;1.70;;;18.30;45.30;;;;;;4993813;28;20178;-67
2023/06/27 02:18:34;;;;;;;5.13;1.30;;;18.30;45.30;;;;;;4991919;28;20189;-66
2023/06/27 02:21:02;;;;;;;6.60;1.90;;;18.40;44.90;;;;;;4992215;28;20571;-68
2023/06/27 02:23:30;;;;;;;4.37;1.47;;;18.60;45.30;;;;;;4993047;28;20225;-68
2023/06/27 02:25:57;;;;;;;6.07;1.73;;;18.70;44.40;;;;;;4992076;28;20186;-68
2023/06/27 02:28:24;;;;;;;4.50;1.20;;;18.60;44.10;;;;;;4993368;28;20540;-67
2023/06/27 02:30:51;;;;;;;5.90;1.13;;;18.40;44.10;;;;;;4993432;28;20201;-67
2023/06/27 02:33:19;;;;;;;3.90;1.33;;;18.40;44.40;;;;;;4991277;28;20535;-68
2023/06/27 02:35:46;;;;;;;6.10;1.70;;;18.40;44.40;;;;;;4994488;28;20209;-67
2023/06/27 02:38:15;;;;;;;4.53;1.50;;;18.50;45.20;;;;;;4991312;28;20699;-67
2023/06/27 02:40:42;;;;;;;3.43;1.50;;;18.70;44.10;;;;;;4991168;28;20259;-69
2023/06/27 02:43:09;;;;;;;5.07;1.40;;;18.80;44.10;;;;;;4993733;28;20318;-74
2023/06/27 02:45:37;;;;;;;3.17;1.13;;;18.70;43.70;;;;;;4992937;28;20280;-75
2023/06/27 02:48:06;;;;;;;4.97;1.30;;;18.50;43.50;;;;;;4991927;28;20174;-72
2023/06/27 02:50:34;;;;;;;4.53;1.20;;;18.40;43.70;;;;;;4992235;28;20185;-69
2023/06/27 02:53:01;;;;;;;3.07;0.90;;;18.40;44.00;;;;;;4993672;28;20644;-76
2023/06/27 02:55:28;;;;;;;6.70;1.40;;;18.40;44.10;;;;;;4989297;28;20568;-71
2023/06/27 02:57:56;;;;;;;7.27;1.27;;;18.60;43.50;;;;;;4988935;28;20190;-68
2023/06/27 03:00:23;;;;;;;6.17;1.10;;;18.80;43.30;;;;;;4993413;28;20623;-67
2023/06/27 03:02:52;;;;;;;3.77;1.13;;;18.40;42.10;;;;;;4993562;28;20232;-69
2023/06/27 03:05:19;;;;;;;2.13;1.00;;;18.30;42.30;;;;;;4988340;28;20182;-67
2023/06/27 03:07:46;;;;;;;4.00;1.00;;;18.40;42.10;;;;;;4989657;28;20205;-70
2023/06/27 03:10:14;;;;;;;4.33;1.10;;;18.50;42.20;;;;;;4988423;28;20194;-69
2023/06/27 03:12:41;;;;;;;3.97;1.10;;;18.60;42.00;;;;;;4986369;28;20232;-69
2023/06/27 03:15:09;;;;;;;3.13;1.17;;;18.60;41.70;;;;;;4992844;28;20617;-70
2023/06/27 03:17:36;;;;;;;5.90;1.23;;;18.40;42.00;;;;;;4990818;28;20186;-68
2023/06/27 03:20:04;;;;;;;4.60;1.10;;;18.20;42.20;;;;;;4991883;28;20194;-69
2023/06/27 03:22:31;;;;;;;4.30;1.50;;;18.20;42.50;;;;;;4992989;28;20238;-69
2023/06/27 03:24:58;;;;;;;4.33;0.93;;;18.20;42.60;;;;;;4986217;28;20641;-69
2023/06/27 03:27:26;;;;;;;3.40;0.80;;;18.30;42.10;;;;;;4993091;28;20360;-75
2023/06/27 03:29:54;;;;;;;3.83;1.00;;;18.60;41.70;;;;;;4988919;28;20189;-68
2023/06/27 03:32:21;;;;;;;4.33;1.10;;;18.70;41.40;;;;;;4991103;28;21112;-68
2023/06/27 03:34:48;;;;;;;3.33;1.00;;;18.60;41.50;;;;;;4988622;28;20274;-68
2023/06/27 03:37:16;;;;;;;1.73;0.90;;;18.80;41.70;;;;;;4993352;28;20184;-70
2023/06/27 03:39:43;;;;;;;1.70;0.80;;;18.80;41.20;;;;;;4991817;28;20659;-69
2023/06/27 03:42:10;;;;;;;4.33;0.90;;;18.90;40.90;;;;;;4992132;28;20261;-69
2023/06/27 03:44:38;;;;;;;4.23;1.10;;;19.20;39.50;;;;;;4993502;28;20251;-70
2023/06/27 03:47:06;;;;;;;2.80;0.90;;;19.10;39.10;;;;;;4990910;28;20182;-68
2023/06/27 03:49:33;;;;;;;4.20;1.10;;;18.90;40.40;;;;;;4994335;28;20186;-68
2023/06/27 03:52:01;;;;;;;2.60;1.10;;;18.80;40.80;;;;;;4988971;28;20226;-67
2023/06/27 03:54:28;;;;;;;2.93;1.20;;;18.80;40.80;;;;;;4990947;28;20679;-67
2023/06/27 03:56:56;;;;;;;2.60;1.10;;;18.80;40.40;;;;;;4992057;28;20273;-68
2023/06/27 03:59:23;;;;;;;3.47;1.13;;;18.80;41.00;;;;;;4989790;28;20283;-68
2023/06/27 04:01:51;;;;;;;1.57;1.00;;;19.10;40.70;;;;;;4991763;28;20304;-68
2023/06/27 04:04:19;;;;;;;4.27;0.90;;;19.50;40.00;;;;;;4994935;28;20174;-68
2023/06/27 04:06:46;;;;;;;2.93;1.07;;;19.90;39.20;;;;;;4991247;28;20197;-68
2023/06/27 04:09:14;;;;;;;6.00;0.90;;;19.80;39.30;;;;;;4991227;28;20198;-69
2023/06/27 04:11:41;;;;;;;2.93;1.07;;;20.20;38.60;;;;;;4991232;28;20274;-68
2023/06/27 04:14:08;;;;;;;6.57;1.10;;;20.20;38.50;;;;;;4992010;28;20888;-69
2023/06/27 04:16:35;;;;;;;1.70;1.00;;;20.00;38.50;;;;;;4990994;28;20186;-68
2023/06/27 04:19:03;;;;;;;5.10;1.53;;;19.50;40.20;;;;;;4988978;28;20236;-69
2023/06/27 04:21:30;;;;;;;3.40;1.13;;;19.80;40.20;;;;;;4991334;28;20707;-67
2023/06/27 04:23:59;;;;;;;4.33;0.90;;;19.70;40.90;;;;;;4989946;28;20187;-66
2023/06/27 04:26:27;;;;;;;2.97;1.00;;;19.60;40.30;;;;;;4990182;28;20603;-66
2023/06/27 04:28:54;;;;;;;5.03;1.20;;;19.60;40.40;;;;;;4989360;28;20185;-67
2023/06/27 04:31:21;;;;;;;3.63;1.07;;;19.40;40.70;;;;;;4990988;28;20194;-66
2023/06/27 04:33:49;;;;;;;3.37;0.93;;;19.40;41.40;;;;;;4985752;28;20194;-66
2023/06/27 04:36:20;;;;;;;3.73;1.10;;;19.30;41.40;;;;;;4990657;28;20197;-66
2023/06/27 04:38:48;;;;;;;2.70;1.10;;;19.50;40.60;;;;;;4988931;28;20553;-69
2023/06/27 04:41:15;;;;;;;5.57;1.30;;;19.30;41.10;;;;;;4991569;28;20688;-67
2023/06/27 04:44:33;;;;;;;2.83;1.00;;;19.50;40.80;;;;;;4987430;28;20223;-67
2023/06/27 04:47:01;;;;;;;2.33;1.00;;;19.50;41.30;;;;;;4989083;28;20232;-68
2023/06/27 04:49:28;;;;;;;5.87;1.10;;;19.40;41.30;;;;;;4988658;28;20182;-67
2023/06/27 04:51:56;;;;;;;3.33;1.27;;;19.50;41.70;;;;;;4986120;28;20195;-67
2023/06/27 04:54:23;;;;;;;3.53;1.00;;;19.30;41.30;;;;;;4986728;28;20182;-66
2023/06/27 04:56:50;;;;;;;2.20;1.00;;;19.60;41.20;;;;;;4988947;28;20214;-66
2023/06/27 04:59:19;;;;;;;2.03;0.90;;;20.10;39.90;;;;;;4990884;28;20549;-66
2023/06/27 05:01:46;;;;;;;3.47;1.13;;;20.70;39.40;;;;;;4972761;28;20273;-67
2023/06/27 05:04:14;;;;;;;4.27;1.10;;;20.90;38.60;;;;;;4989110;28;20190;-67
2023/06/27 05:06:41;;;;;;;4.70;1.27;;;21.10;38.60;;;;;;4974026;28;20253;-67
2023/06/27 05:09:10;;;;;;;2.77;1.27;;;21.00;38.70;;;;;;4990359;28;20204;-67
2023/06/27 05:11:37;;;;;;;1.73;1.00;;;20.90;38.30;;;;;;4989149;28;20562;-68
2023/06/27 05:14:05;;;;;;;4.33;1.10;;;19.90;40.00;;;;;;4987970;28;20182;-69
2023/06/27 05:16:32;;;;;;;2.10;0.90;;;19.50;41.10;;;;;;4989223;28;20210;-66
2023/06/27 05:19:01;;;;;;;2.17;1.10;;;19.50;41.70;;;;;;4987843;28;20198;-67
2023/06/27 05:21:29;;;;;;;3.70;1.17;;;19.70;41.20;;;;;;4989608;28;20264;-66
2023/06/27 05:23:56;;;;;;;3.33;1.00;;;19.70;41.40;;;;;;4989879;28;20170;-67
2023/06/27 05:26:24;;;;;;;4.43;1.03;;;19.80;40.70;;;;;;4989784;28;20190;-67
2023/06/27 05:28:52;;;;;;;2.03;0.80;;;20.40;39.50;;;;;;4988070;28;20182;-67
2023/06/27 05:31:19;;;;;;;2.03;1.10;;;20.80;38.40;;;;;;4992613;28;20187;-66
2023/06/27 05:33:47;;;;;;;4.10;0.90;;;20.60;38.60;;;;;;4987256;28;20236;-69
2023/06/27 05:36:14;;;;;;;5.93;1.00;;;20.80;38.40;;;;;;4990062;28;20186;-66
2023/06/27 05:38:41;;;;;;;3.23;1.17;;;20.20;39.90;;;;;;4987721;28;20667;-71
2023/06/27 05:41:09;;;;;;;4.23;1.00;;;20.50;38.90;;;;;;4990188;28;20217;-66
2023/06/27 05:43:37;;;;;;;3.20;1.20;;;20.70;39.10;;;;;;4988487;28;20314;-68
2023/06/27 05:46:04;;;;;;;3.73;1.20;;;21.00;38.10;;;;;;4988797;28;20244;-68
2023/06/27 05:48:32;;;;;;;4.10;1.37;;;20.70;38.00;;;;;;4970218;28;20194;-67
2023/06/27 05:50:59;;;;;;;4.07;1.57;;;20.70;38.20;;;;;;4988954;28;20522;-69
2023/06/27 05:53:26;;;;;;;3.87;1.13;;;20.80;37.90;;;;;;4991000;28;20860;-67
2023/06/27 05:55:54;;;;;;;1.60;0.90;;;20.30;38.80;;;;;;4990206;28;20190;-66
2023/06/27 05:58:21;;;;;;;2.97;1.20;;;19.10;40.70;;;;;;4989196;28;21227;-67
2023/06/27 06:00:48;;;;;;;1.20;0.90;;;18.50;42.10;;;;;;4986844;28;20699;-66
2023/06/27 06:03:16;;;;;;;3.67;1.23;;;18.50;42.80;;;;;;4988400;28;20188;-66
2023/06/27 06:05:43;;;;;;;2.67;1.20;;;18.90;42.70;;;;;;4991487;28;20651;-68
2023/06/27 06:08:12;;;;;;;2.93;1.27;;;18.60;42.80;;;;;;4988508;28;20197;-66
2023/06/27 06:10:39;;;;;;;3.00;1.10;;;18.20;43.60;;;;;;4988461;28;20182;-69
2023/06/27 06:13:06;;;;;;;2.87;1.07;;;17.80;44.70;;;;;;4987854;28;20313;-66
2023/06/27 06:15:34;;;;;;;4.47;1.40;;;17.60;45.40;;;;;;4988539;28;20526;-66
2023/06/27 06:18:03;;;;;;;6.60;1.30;;;17.40;45.60;;;;;;4988790;28;20182;-68
2023/06/27 06:20:31;;;;;;;2.83;1.17;;;17.20;46.10;;;;;;4971432;28;20218;-67
2023/06/27 06:22:59;;;;;;;3.30;1.20;;;17.10;46.50;;;;;;4987258;28;20517;-68
2023/06/27 06:25:28;;;;;;;4.17;1.20;;;17.00;46.10;;;;;;4989207;28;20633;-68
2023/06/27 06:27:55;;;;;;;5.03;1.30;;;16.90;46.40;;;;;;4987079;28;20271;-69
2023/06/27 06:30:23;;;;;;;4.57;1.60;;;16.80;46.70;;;;;;4989544;28;20288;-70
2023/06/27 06:32:50;;;;;;;3.57;1.40;;;16.70;46.70;;;;;;4989040;28;20186;-67
2023/06/27 06:35:17;;;;;;;5.13;1.30;;;16.60;46.70;;;;;;4988975;28;20185;-67
2023/06/27 06:37:45;;;;;;;3.33;1.13;;;16.60;47.20;;;;;;4987092;28;20194;-69
2023/06/27 06:40:12;;;;;;;3.30;1.20;;;16.60;47.90;;;;;;4991144;28;20203;-67
2023/06/27 06:42:40;;;;;;;4.50;1.33;;;16.50;47.90;;;;;;4989684;28;20616;-67
2023/06/27 06:45:08;;;;;;;3.70;1.20;;;16.50;48.10;;;;;;4987840;28;20217;-66
2023/06/27 06:47:36;;;;;;;4.37;1.20;;;16.40;48.80;;;;;;4990012;28;20193;-67
2023/06/27 06:50:04;;;;;;;3.27;1.50;;;16.30;49.20;;;;;;4989455;28;20208;-67
2023/06/27 06:52:31;;;;;;;3.00;1.30;;;16.30;49.20;;;;;;4990573;28;20240;-68
2023/06/27 06:54:59;;;;;;;6.00;1.67;;;16.30;49.70;;;;;;4992547;28;20607;-70
2023/06/27 06:57:26;;;;;;;6.13;1.80;;;16.20;50.20;;;;;;4994004;28;20188;-67
2023/06/27 06:59:53;;;;;;;6.70;1.67;;;16.10;50.30;;;;;;4992885;28;20663;-66
2023/06/27 07:02:21;;;;;;;5.57;1.60;;;16.00;50.80;;;;;;4995746;28;20533;-67
2023/06/27 07:04:49;;;;;;;7.17;2.13;;;16.00;51.30;;;;;;4988825;28;20193;-69
2023/06/27 07:07:17;;;;;;;5.60;1.40;;;15.90;51.60;;;;;;4988562;28;20188;-68
2023/06/27 07:09:44;;;;;;;6.17;1.77;;;15.80;51.60;;;;;;4990642;28;20197;-66
2023/06/27 07:12:11;;;;;;;6.37;1.63;;;15.70;52.10;;;;;;4991941;28;20644;-67
2023/06/27 07:14:39;;;;;;;5.23;1.90;;;15.70;52.60;;;;;;4991773;28;20244;-67
2023/06/27 07:17:06;;;;;;;3.20;1.40;;;15.60;52.90;;;;;;4992736;28;20181;-66
2023/06/27 07:19:34;;;;;;;5.63;1.90;;;15.50;53.00;;;;;;4989021;28;20195;-66
2023/06/27 07:22:01;;;;;;;9.13;2.10;;;15.50;53.00;;;;;;4993980;28;20901;-66
2023/06/27 07:24:28;;;;;;;5.23;1.90;;;15.50;53.50;;;;;;4991094;28;20217;-67
2023/06/27 07:26:56;;;;;;;6.00;2.10;;;15.40;53.70;;;;;;4991358;28;20201;-70
2023/06/27 07:29:23;;;;;;;5.87;2.00;;;15.30;53.90;;;;;;4991939;28;20201;-67
2023/06/27 07:31:50;;;;;;;4.60;1.80;;;15.30;54.20;;;;;;4989439;28;20197;-66
2023/06/27 07:34:18;;;;;;;6.30;2.60;;;15.30;54.30;;;;;;4990143;28;20240;-67
2023/06/27 07:36:47;;;;;;;3.27;1.80;;;15.30;53.80;;;;;;4989303;28;20200;-66
2023/06/27 07:39:15;;;;;;;6.03;2.10;;;15.30;54.00;;;;;;4989216;28;20186;-66
2023/06/27 07:41:42;;;;;;;9.37;2.27;;;15.30;54.50;;;;;;4991302;28;20248;-66
2023/06/27 07:44:10;;;;;;;6.77;1.70;;;15.30;54.90;;;;;;4990586;28;20229;-66
2023/06/27 07:46:37;;;;;;;3.97;1.80;;;15.30;54.50;;;;;;4988201;28;20239;-66
2023/06/27 07:49:04;;;;;;;8.17;1.80;;;15.30;55.00;;;;;;4990735;28;20594;-66
2023/06/27 07:51:32;;;;;;;4.47;1.90;;;15.20;55.30;;;;;;4993954;28;20182;-66
2023/06/27 07:54:02;;;;;;;6.87;2.00;;;15.20;55.40;;;;;;4991062;28;20192;-66
2023/06/27 07:56:30;;;;;;;5.40;2.10;;;15.20;55.00;;;;;;4990353;28;20190;-66
2023/06/27 07:58:59;;;;;;;4.80;2.07;;;15.20;55.50;;;;;;4992462;28;20776;-66
2023/06/27 08:01:27;;;;;;;5.73;1.90;;;15.20;55.60;;;;;;4992702;28;20631;-66
2023/06/27 08:03:54;;;;;;;5.63;2.00;;;15.10;55.80;;;;;;4991879;28;20664;-66
2023/06/27 08:06:21;;;;;;;9.37;2.57;;;15.10;56.00;;;;;;4974678;28;20198;-66
2023/06/27 08:08:49;;;;;;;7.77;2.53;;;15.10;56.20;;;;;;4989908;28;20749;-66
2023/06/27 08:11:17;;;;;;;4.33;2.23;;;15.00;56.10;;;;;;4989020;28;20193;-66
2023/06/27 08:13:45;;;;;;;4.73;2.40;;;15.00;56.60;;;;;;4990080;28;20545;-66
2023/06/27 08:16:12;;;;;;;9.90;3.50;;;14.90;56.90;;;;;;4987161;28;20272;-66
2023/06/27 08:18:39;;;;;;;7.53;3.30;;;14.90;56.80;;;;;;4989489;28;20188;-67
2023/06/27 08:21:07;;;;;;;9.77;3.93;;;14.90;57.10;;;;;;4989160;28;20234;-66
2023/06/27 08:23:34;;;;;;;8.77;3.00;;;14.90;56.80;;;;;;4992149;28;20644;-66
2023/06/27 08:26:01;;;;;;;6.97;3.20;;;14.90;57.30;;;;;;4990312;28;20189;-66
2023/06/27 08:28:29;;;;;;;9.27;3.70;;;14.80;57.00;;;;;;4989660;28;20181;-67
2023/06/27 08:30:58;;;;;;;7.70;3.57;;;14.80;58.00;;;;;;4988950;28;20193;-67
2023/06/27 08:33:25;;;;;;;9.73;3.33;;;14.70;58.40;;;;;;4992317;28;20200;-70
2023/06/27 08:35:52;;;;;;;7.93;3.10;;;14.70;59.30;;;;;;4988609;28;20208;-67
2023/06/27 08:38:20;;;;;;;11.83;3.37;;;14.60;59.30;;;;;;4991746;28;20262;-69
2023/06/27 08:40:53;;;;;;;7.73;3.30;;;14.50;59.40;;;;;;4989542;28;20233;-66
2023/06/27 08:43:21;;;;;;;7.20;3.73;;;14.40;59.80;;;;;;4986424;28;20245;-65
2023/06/27 08:45:51;;;;;;;10.33;4.30;;;14.30;60.20;;;;;;4991762;28;20182;-66
2023/06/27 08:48:19;;;;;;;13.60;4.07;;;14.40;60.70;;;;;;4986230;28;20239;-66
2023/06/27 08:50:51;;;;;;;9.03;4.20;;;14.30;60.50;;;;;;4988834;28;20232;-66
2023/06/27 08:53:19;;;;;;;7.67;4.20;;;14.30;60.60;;;;;;4991178;28;20201;-66
2023/06/27 08:56:04;;;;;;;11.00;4.60;;;14.30;61.30;;;;;;4985994;28;20183;-66
2023/06/27 08:58:41;;;;;;;8.17;4.07;;;14.30;61.10;;;;;;4989627;28;20194;-65
2023/06/27 09:01:10;;;;;;;8.30;3.43;;;14.20;60.90;;;;;;4988835;28;20218;-65
2023/06/27 09:03:38;;;;;;;14.40;3.67;;;14.20;60.90;;;;;;4991418;28;20185;-66
2023/06/27 09:06:07;;;;;;;8.90;3.47;;;14.20;61.70;;;;;;4989636;28;20544;-67
2023/06/27 09:08:35;;;;;;;9.57;4.00;;;14.20;61.50;;;;;;4984172;28;20266;-66
2023/06/27 09:11:08;;;;;;;7.30;3.20;;;14.20;61.90;;;;;;4988274;28;20215;-66
2023/06/27 09:13:39;;;;;;;9.20;3.60;;;14.10;62.00;;;;;;4990644;28;20634;-67
2023/06/27 09:16:08;;;;;;;8.53;3.93;;;14.00;62.60;;;;;;4987019;28;20215;-66
2023/06/27 09:18:37;;;;;;;11.43;4.00;;;14.00;62.60;;;;;;4990915;28;20215;-66
2023/06/27 09:21:04;;;;;;;12.53;5.17;;;14.00;62.40;;;;;;4988720;28;20206;-66
2023/06/27 09:23:32;;;;;;;9.80;4.93;;;14.00;62.90;;;;;;4990526;28;20243;-65
2023/06/27 09:26:13;;;;;;;10.20;4.60;;;14.00;63.00;;;;;;4988597;28;20558;-67
2023/06/27 09:28:51;;;;;;;12.67;5.20;;;14.00;62.80;;;;;;4990851;28;20232;-65
2023/06/27 09:31:20;;;;;;;12.77;4.53;;;14.10;62.60;;;;;;4990342;28;20324;-65
2023/06/27 09:33:48;;;;;;;12.77;6.17;;;14.10;62.90;;;;;;4990680;28;20187;-65
2023/06/27 09:36:37;;;;;;;16.60;9.20;;;14.20;62.90;;;;;;4990490;28;20178;-66
2023/06/27 09:39:06;;;;;;;17.43;8.90;;;14.20;62.50;;;;;;4989865;28;20266;-65
2023/06/27 09:41:41;;;;;;;18.87;9.37;;;14.20;62.10;;;;;;4987191;28;20304;-65
2023/06/27 09:44:22;;;;;;;21.43;11.83;;;14.20;62.50;;;;;;4989758;28;20700;-65
2023/06/27 09:46:53;;;;;;;20.80;10.83;;;14.20;62.00;;;;;;4991522;28;20189;-65
2023/06/27 09:49:22;;;;;;;21.27;9.73;;;14.20;62.80;;;;;;4991067;28;20179;-65
2023/06/27 09:51:50;;;;;;;15.80;8.87;;;14.10;64.00;;;;;;4988302;28;20186;-64
2023/06/27 09:54:22;;;;;;;18.10;9.30;;;14.00;63.50;;;;;;4990489;28;20186;-65
2023/06/27 09:56:51;;;;;;;20.27;9.07;;;14.00;64.50;;;;;;4985425;28;20241;-68
2023/06/27 09:59:26;;;;;;;17.10;8.57;;;14.00;63.80;;;;;;4977710;28;20192;-65
2023/06/27 10:01:54;;;;;;;14.97;7.47;;;14.00;64.10;;;;;;4990510;28;20363;-65
2023/06/27 10:04:23;;;;;;;14.63;6.70;;;13.90;63.80;;;;;;4987320;28;20531;-66
2023/06/27 10:06:51;;;;;;;14.67;7.37;;;13.90;63.40;;;;;;4992891;28;20188;-68
2023/06/27 10:09:19;;;;;;;15.13;8.00;;;13.90;63.90;;;;;;4987653;28;20185;-68
2023/06/27 10:11:47;;;;;;;19.60;8.53;;;13.90;63.70;;;;;;4989181;28;20628;-69
2023/06/27 10:14:15;;;;;;;16.17;10.17;;;13.90;64.20;;;;;;4984126;28;20202;-68
2023/06/27 10:16:43;;;;;;;18.00;10.50;;;14.00;63.60;;;;;;4987527;28;20626;-67
2023/06/27 10:19:12;;;;;;;19.63;11.53;;;13.90;63.50;;;;;;4987080;28;20178;-68
2023/06/27 10:21:39;;;;;;;18.63;10.57;;;13.90;63.50;;;;;;4985859;28;20553;-68
2023/06/27 10:24:09;;;;;;;18.90;9.50;;;13.90;63.20;;;;;;4987030;28;20214;-67
2023/06/27 10:26:36;;;;;;;17.90;9.33;;;13.90;63.90;;;;;;4990074;28;20178;-67
2023/06/27 10:29:24;;;;;;;23.33;10.53;;;14.00;63.80;;;;;;4992879;28;20191;-67
2023/06/27 10:31:52;;;;;;;16.77;9.43;;;14.00;63.70;;;;;;4993659;28;20373;-69
2023/06/27 10:34:24;;;;;;;14.27;8.23;;;14.00;64.00;;;;;;4994556;28;20265;-67
2023/06/27 10:36:59;;;;;;;16.67;8.77;;;14.10;63.90;;;;;;4993745;28;20210;-67
2023/06/27 10:39:30;;;;;;;13.47;7.30;;;14.10;63.30;;;;;;4994041;28;20178;-72
2023/06/27 10:42:17;;;;;;;13.60;6.73;;;14.10;63.30;;;;;;4992205;28;20309;-66
2023/06/27 10:45:10;;;;;;;13.23;7.27;;;14.10;63.90;;;;;;4989492;28;20304;-67
2023/06/27 10:47:47;;;;;;;13.77;7.27;;;14.10;63.40;;;;;;4987037;28;20179;-68
2023/06/27 10:50:20;;;;;;;15.47;7.27;;;14.00;64.20;;;;;;4993213;28;20190;-67
2023/06/27 10:53:16;;;;;;;10.17;6.17;;;14.00;63.30;;;;;;4993512;28;20241;-66
2023/06/27 10:55:43;;;;;;;13.37;5.87;;;14.00;63.80;;;;;;4981983;28;20224;-68
2023/06/27 10:58:14;;;;;;;16.80;5.97;;;13.90;63.80;;;;;;4990218;28;20175;-66
2023/06/27 11:00:46;;;;;;;13.63;6.33;;;13.90;63.40;;;;;;4990658;28;20284;-67
2023/06/27 11:03:19;;;;;;;11.40;6.07;;;13.90;63.90;;;;;;4990889;28;20273;-67
2023/06/27 11:05:59;;;;;;;13.53;5.53;;;13.90;64.10;;;;;;4992936;28;20640;-67
2023/06/27 11:08:30;;;;;;;18.30;6.80;;;13.90;64.30;;;;;;4991116;28;20636;-66
2023/06/27 11:11:02;;;;;;;10.93;5.93;;;13.90;64.00;;;;;;4988934;28;20182;-68
2023/06/27 11:13:31;;;;;;;14.67;6.97;;;13.90;63.70;;;;;;4991250;28;20241;-67
2023/06/27 11:15:58;;;;;;;15.30;7.67;;;13.90;63.70;;;;;;4991580;28;20189;-66
2023/06/27 11:18:26;;;;;;;13.13;6.13;;;13.90;63.30;;;;;;4990559;28;20232;-67
2023/06/27 11:20:55;;;;;;;13.47;6.30;;;14.00;63.50;;;;;;4992203;28;20679;-66
2023/06/27 11:23:23;;;;;;;13.17;5.57;;;13.90;63.40;;;;;;4985737;28;20194;-66
2023/06/27 11:25:51;;;;;;;10.87;5.30;;;13.90;63.80;;;;;;4991200;28;20903;-67
2023/06/27 11:28:21;;;;;;;14.20;5.67;;;13.90;64.00;;;;;;4990194;28;20186;-66
2023/06/27 11:30:48;;;;;;;14.17;5.63;;;13.80;63.40;;;;;;4991168;28;20194;-67
2023/06/27 11:33:23;;;;;;;15.30;6.53;;;13.80;64.00;;;;;;4988959;28;20548;-67
2023/06/27 11:35:51;;;;;;;10.43;5.57;;;13.80;64.50;;;;;;4992010;28;20181;-66
2023/06/27 11:38:18;;;;;;;14.00;6.13;;;13.70;64.50;;;;;;4990633;28;20208;-66
2023/06/27 11:40:50;;;;;;;11.93;6.13;;;13.70;63.80;;;;;;4989034;28;20360;-68
2023/06/27 11:43:18;;;;;;;12.53;5.33;;;13.60;63.80;;;;;;4990971;28;20578;-67
2023/06/27 11:45:51;;;;;;;15.30;6.00;;;13.50;63.80;;;;;;4991004;28;20200;-66
2023/06/27 11:48:19;;;;;;;11.47;6.03;;;13.40;64.80;;;;;;4991719;28;20178;-66
2023/06/27 11:51:05;;;;;;;10.53;5.77;;;13.50;65.70;;;;;;4992520;28;20189;-67
2023/06/27 11:53:33;;;;;;;11.07;5.43;;;13.50;66.10;;;;;;4988163;28;20276;-67
2023/06/27 11:56:01;;;;;;;13.30;5.60;;;13.50;65.70;;;;;;4992712;28;20182;-66
2023/06/27 11:58:31;;;;;;;12.23;4.97;;;13.40;65.10;;;;;;4992809;28;20193;-68
2023/06/27 12:00:59;;;;;;;12.47;5.23;;;13.50;64.90;;;;;;4988553;28;20214;-67
2023/06/27 12:03:35;;;;;;;9.77;4.67;;;13.50;64.60;;;;;;4990954;28;20193;-67
2023/06/27 12:06:02;;;;;;;14.53;5.53;;;13.50;64.20;;;;;;4987178;28;20193;-68
2023/06/27 12:08:35;;;;;;;14.70;4.90;;;13.50;64.50;;;;;;4992957;28;20190;-71
2023/06/27 12:11:04;;;;;;;13.93;4.90;;;13.50;63.60;;;;;;4990625;28;20197;-67
2023/06/27 12:13:37;;;;;;;14.33;4.90;;;13.50;64.30;;;;;;4989066;28;20195;-69
2023/06/27 12:16:07;;;;;;;10.30;4.70;;;13.50;64.00;;;;;;4986724;28;20194;-67
2023/06/27 12:18:35;;;;;;;13.53;4.87;;;13.50;64.40;;;;;;4972415;28;20561;-71
2023/06/27 12:21:02;;;;;;;17.07;5.23;;;13.40;64.80;;;;;;4990820;28;20249;-67
2023/06/27 12:23:30;;;;;;;12.00;4.50;;;13.40;64.40;;;;;;4991307;28;20642;-67
2023/06/27 12:25:59;;;;;;;10.47;4.20;;;13.30;64.40;;;;;;4992202;28;20200;-66
2023/06/27 12:28:27;;;;;;;10.00;4.17;;;13.40;64.10;;;;;;4986985;28;20185;-67
2023/06/27 12:30:55;;;;;;;10.13;4.13;;;13.40;63.50;;;;;;4992230;28;20193;-70
2023/06/27 12:33:22;;;;;;;8.63;3.87;;;13.50;64.40;;;;;;4990694;28;20199;-66
2023/06/27 12:35:50;;;;;;;8.87;4.03;;;13.40;63.90;;;;;;4989251;28;20268;-70
2023/06/27 12:38:17;;;;;;;12.53;4.50;;;13.40;63.90;;;;;;4989125;28;20197;-67
2023/06/27 12:40:45;;;;;;;8.03;3.30;;;13.40;64.00;;;;;;4987031;28;20213;-66
2023/06/27 12:43:12;;;;;;;11.10;3.80;;;13.30;62.90;;;;;;4986457;28;20201;-67
2023/06/27 12:45:40;;;;;;;8.53;2.83;;;13.40;60.80;;;;;;4986870;28;20178;-69
2023/06/27 12:48:07;;;;;;;9.03;3.00;;;13.50;61.10;;;;;;4985505;28;20636;-67
2023/06/27 12:50:37;;;;;;;7.63;2.40;;;13.50;61.40;;;;;;4988935;28;20189;-66
2023/06/27 12:53:05;;;;;;;5.90;2.60;;;13.60;60.10;;;;;;4987349;28;20181;-67